Time;durP1;ratioP1;P1;durP2;ratioP2;P2;SDS_P1;SDS_P2;PMS_P1;PMS_P2;Temp;Humidity;BMP_temperature;BMP_pressure;BME280_temperature;BME280_humidity;BME280_pressure;Samples;Min_cycle;Max_cycle;Signal;HPM_P1;HPM_P2
2023/10/03 00:01:44;;;;;;;0.10;0.10;;;17.40;44.00;;;;;;5032272;28;20216;-46
2023/10/03 00:04:16;;;;;;;0.00;0.00;;;17.40;44.00;;;;;;5031369;28;20224;-47
2023/10/03 00:06:47;;;;;;;0.00;0.00;;;17.40;44.00;;;;;;5032647;28;20258;-46
2023/10/03 00:09:18;;;;;;;0.00;0.00;;;17.50;44.20;;;;;;5031787;28;20287;-47
2023/10/03 00:11:49;;;;;;;0.10;0.10;;;17.50;44.20;;;;;;5032357;28;20200;-49
2023/10/03 00:14:20;;;;;;;0.10;0.10;;;17.50;44.30;;;;;;5029391;28;20227;-48
2023/10/03 00:16:50;;;;;;;0.10;0.10;;;17.50;44.40;;;;;;5028242;28;20683;-46
2023/10/03 00:19:23;;;;;;;0.10;0.10;;;17.50;44.40;;;;;;5031508;28;20226;-46
2023/10/03 00:21:56;;;;;;;0.00;0.00;;;17.60;44.70;;;;;;5033228;28;20204;-47
2023/10/03 00:24:27;;;;;;;0.10;0.10;;;17.60;44.70;;;;;;5033081;28;20202;-50
2023/10/03 00:26:59;;;;;;;0.00;0.00;;;17.60;44.60;;;;;;5033179;28;20192;-49
2023/10/03 00:29:29;;;;;;;0.00;0.00;;;17.60;44.60;;;;;;5032061;28;20200;-49
2023/10/03 00:32:01;;;;;;;0.10;0.10;;;17.70;44.70;;;;;;5032459;28;20196;-48
2023/10/03 00:34:36;;;;;;;0.10;0.10;;;17.70;44.70;;;;;;5032065;28;20656;-50
2023/10/03 00:37:07;;;;;;;0.00;0.00;;;17.70;44.70;;;;;;5033342;28;20206;-49
2023/10/03 00:39:37;;;;;;;0.10;0.10;;;17.70;44.60;;;;;;5032576;28;20222;-48
2023/10/03 00:42:09;;;;;;;0.10;0.10;;;17.80;44.70;;;;;;5032787;28;20196;-48
2023/10/03 00:44:40;;;;;;;0.10;0.10;;;17.80;44.60;;;;;;5032842;28;20202;-50
2023/10/03 00:47:12;;;;;;;0.00;0.00;;;17.80;44.60;;;;;;5030957;28;20267;-50
2023/10/03 00:49:46;;;;;;;0.00;0.00;;;17.80;44.60;;;;;;5031555;28;20196;-49
2023/10/03 00:52:17;;;;;;;0.10;0.10;;;17.80;44.60;;;;;;5030605;28;20306;-49
2023/10/03 00:54:48;;;;;;;0.00;0.00;;;17.90;44.60;;;;;;5030067;28;20202;-47
2023/10/03 00:57:19;;;;;;;0.00;0.00;;;17.90;44.70;;;;;;5022662;28;20199;-49
2023/10/03 00:59:50;;;;;;;0.00;0.00;;;17.90;44.70;;;;;;5029661;28;20228;-51
2023/10/03 01:02:21;;;;;;;0.10;0.10;;;17.90;44.70;;;;;;5023723;28;20755;-49
2023/10/03 01:04:55;;;;;;;0.00;0.00;;;17.90;44.80;;;;;;5033503;28;20657;-49
2023/10/03 01:07:25;;;;;;;0.10;0.10;;;18.00;44.80;;;;;;5013148;28;20201;-50
2023/10/03 01:09:56;;;;;;;0.00;0.00;;;18.00;44.80;;;;;;5031635;28;20200;-51
2023/10/03 01:12:29;;;;;;;0.00;0.00;;;18.00;44.80;;;;;;5032413;28;20216;-46
2023/10/03 01:14:59;;;;;;;0.00;0.00;;;18.00;44.80;;;;;;5030019;28;20275;-50
2023/10/03 01:17:31;;;;;;;0.00;0.00;;;18.10;44.80;;;;;;5031884;28;20193;-46
2023/10/03 01:20:08;;;;;;;0.00;0.00;;;18.10;44.80;;;;;;5030674;28;20629;-46
2023/10/03 01:22:40;;;;;;;0.10;0.10;;;18.10;44.80;;;;;;5031612;28;20231;-46
2023/10/03 01:25:14;;;;;;;0.00;0.00;;;18.10;44.80;;;;;;5030551;28;20199;-45
2023/10/03 01:27:45;;;;;;;0.10;0.10;;;18.10;44.70;;;;;;5030858;28;20219;-48
2023/10/03 01:30:16;;;;;;;0.08;0.08;;;18.20;44.70;;;;;;5030826;28;20189;-47
2023/10/03 01:32:51;;;;;;;0.00;0.00;;;18.20;44.70;;;;;;5030574;28;20565;-48
2023/10/03 01:35:23;;;;;;;0.00;0.00;;;18.20;44.70;;;;;;5029655;28;20192;-49
2023/10/03 01:37:54;;;;;;;0.00;0.00;;;18.30;44.70;;;;;;5030523;28;20781;-48
2023/10/03 01:40:27;;;;;;;0.00;0.00;;;18.30;44.70;;;;;;5029955;28;20247;-46
2023/10/03 01:42:58;;;;;;;0.10;0.10;;;18.20;44.60;;;;;;5029682;28;20306;-48
2023/10/03 01:45:32;;;;;;;0.00;0.00;;;18.30;44.70;;;;;;5030353;28;20192;-48
2023/10/03 01:48:05;;;;;;;0.10;0.10;;;18.30;44.80;;;;;;5029455;28;20661;-49
2023/10/03 01:50:36;;;;;;;0.03;0.03;;;18.30;44.70;;;;;;5029163;28;20559;-47
2023/10/03 01:53:07;;;;;;;0.00;0.00;;;18.40;44.80;;;;;;5029433;28;20212;-46
2023/10/03 01:55:40;;;;;;;0.00;0.00;;;18.40;44.80;;;;;;5029247;28;20202;-47
2023/10/03 01:58:11;;;;;;;0.00;0.00;;;18.40;44.70;;;;;;5030041;28;20196;-49
2023/10/03 02:00:45;;;;;;;0.05;0.05;;;18.40;44.80;;;;;;5030166;28;20220;-51
2023/10/03 02:03:16;;;;;;;0.00;0.00;;;18.40;44.70;;;;;;5031072;28;20688;-46
2023/10/03 02:05:48;;;;;;;0.00;0.00;;;18.50;44.70;;;;;;5029340;28;20664;-47
2023/10/03 02:08:20;;;;;;;0.00;0.00;;;18.50;44.70;;;;;;5030066;28;20656;-47
2023/10/03 02:10:56;;;;;;;0.10;0.10;;;18.50;44.70;;;;;;5029568;28;20559;-47
2023/10/03 02:13:27;;;;;;;0.00;0.00;;;18.50;44.60;;;;;;5046171;28;20695;-46
2023/10/03 02:15:58;;;;;;;0.00;0.00;;;18.50;44.60;;;;;;5030370;28;20196;-46
2023/10/03 02:18:29;;;;;;;0.00;0.00;;;18.60;44.60;;;;;;5029654;28;20204;-46
2023/10/03 02:21:01;;;;;;;0.00;0.00;;;18.60;44.60;;;;;;5029535;28;20227;-49
2023/10/03 02:23:32;;;;;;;0.00;0.00;;;18.60;44.60;;;;;;5030505;28;20226;-47
2023/10/03 02:26:12;;;;;;;0.10;0.10;;;18.60;44.60;;;;;;5029701;28;20292;-48
2023/10/03 02:28:43;;;;;;;0.10;0.10;;;18.60;44.60;;;;;;5030047;28;20192;-46
2023/10/03 02:31:15;;;;;;;0.10;0.10;;;18.60;44.50;;;;;;5029539;28;20189;-46
2023/10/03 02:33:46;;;;;;;0.00;0.00;;;18.70;44.60;;;;;;5029675;28;20261;-46
2023/10/03 02:36:17;;;;;;;0.00;0.00;;;18.70;44.60;;;;;;5029526;28;20192;-48
2023/10/03 02:38:47;;;;;;;0.00;0.00;;;18.80;44.60;;;;;;5028762;28;20632;-49
2023/10/03 02:41:20;;;;;;;0.03;0.03;;;18.80;44.60;;;;;;5030192;28;20745;-47
2023/10/03 02:43:51;;;;;;;0.00;0.00;;;18.80;45.10;;;;;;5028758;28;20470;-49
2023/10/03 02:46:22;;;;;;;0.10;0.10;;;18.80;44.60;;;;;;5029391;28;20192;-47
2023/10/03 02:48:55;;;;;;;0.00;0.00;;;18.90;44.60;;;;;;5028595;28;20196;-48
2023/10/03 02:51:26;;;;;;;0.00;0.00;;;18.90;44.60;;;;;;5030202;28;20215;-47
2023/10/03 02:53:57;;;;;;;0.00;0.00;;;18.90;44.50;;;;;;5029562;28;20215;-46
2023/10/03 02:56:29;;;;;;;0.00;0.00;;;18.90;44.60;;;;;;5030121;28;20199;-46
2023/10/03 02:59:00;;;;;;;0.00;0.00;;;19.00;44.60;;;;;;5030742;28;20687;-47
2023/10/03 03:01:33;;;;;;;0.05;0.05;;;19.00;44.60;;;;;;5032775;28;20220;-50
2023/10/03 03:04:05;;;;;;;0.00;0.00;;;19.00;44.60;;;;;;5034257;28;20215;-50
2023/10/03 03:06:39;;;;;;;0.00;0.00;;;19.00;44.60;;;;;;5033947;28;20192;-48
2023/10/03 03:09:13;;;;;;;0.00;0.00;;;19.10;44.70;;;;;;5034496;28;20639;-48
2023/10/03 03:11:49;;;;;;;0.00;0.00;;;19.10;44.60;;;;;;5033879;28;20291;-47
2023/10/03 03:14:20;;;;;;;0.00;0.00;;;19.10;44.70;;;;;;5034037;28;20231;-48
2023/10/03 03:16:52;;;;;;;0.00;0.00;;;19.10;44.70;;;;;;5032556;28;20664;-48
2023/10/03 03:19:23;;;;;;;0.00;0.00;;;19.20;44.70;;;;;;5033826;28;20553;-49
2023/10/03 03:21:57;;;;;;;0.00;0.00;;;19.20;44.70;;;;;;5034110;28;20220;-49
2023/10/03 03:24:34;;;;;;;0.00;0.00;;;19.30;44.70;;;;;;5034072;28;20211;-51
2023/10/03 03:27:11;;;;;;;0.00;0.00;;;19.20;44.60;;;;;;5034333;28;20198;-50
2023/10/03 03:29:57;;;;;;;0.00;0.00;;;19.30;44.60;;;;;;5033460;28;20318;-49
2023/10/03 03:32:28;;;;;;;0.00;0.00;;;19.30;44.50;;;;;;5033643;28;20212;-49
2023/10/03 03:34:59;;;;;;;0.00;0.00;;;19.30;44.40;;;;;;5033164;28;20188;-51
2023/10/03 03:37:37;;;;;;;0.00;0.00;;;19.40;44.40;;;;;;5033656;28;20192;-49
2023/10/03 03:40:25;;;;;;;0.00;0.00;;;19.40;44.40;;;;;;5033187;28;20573;-49
2023/10/03 03:42:57;;;;;;;0.00;0.00;;;19.50;44.30;;;;;;5033500;28;20216;-48
2023/10/03 03:45:28;;;;;;;0.00;0.00;;;19.50;44.30;;;;;;5034082;28;20203;-50
2023/10/03 03:48:00;;;;;;;0.00;0.00;;;19.50;44.30;;;;;;5033330;28;20451;-50
2023/10/03 03:50:31;;;;;;;0.03;0.03;;;19.50;44.20;;;;;;5032701;28;20223;-54
2023/10/03 03:53:02;;;;;;;0.00;0.00;;;19.50;44.20;;;;;;5032893;28;20714;-49
2023/10/03 03:55:34;;;;;;;0.00;0.00;;;19.50;44.10;;;;;;5033498;28;20236;-50
2023/10/03 03:58:11;;;;;;;0.08;0.08;;;19.60;44.20;;;;;;5032746;28;20290;-50
2023/10/03 04:03:28;;;;;;;0.00;0.00;;;19.60;44.10;;;;;;4991809;28;20232;-64
2023/10/03 04:05:58;;;;;;;0.00;0.00;;;19.70;44.20;;;;;;4992074;28;20280;-57
2023/10/03 04:08:29;;;;;;;0.00;0.00;;;19.70;44.10;;;;;;4974316;28;20194;-58
2023/10/03 04:11:00;;;;;;;0.00;0.00;;;19.70;44.10;;;;;;4974630;28;20659;-60
2023/10/03 04:13:38;;;;;;;0.00;0.00;;;19.80;44.00;;;;;;4993878;28;20268;-64
2023/10/03 04:16:11;;;;;;;0.10;0.10;;;19.80;44.60;;;;;;4994256;28;20216;-65
2023/10/03 04:18:44;;;;;;;0.10;0.10;;;19.80;43.90;;;;;;4994125;28;20204;-62
2023/10/03 04:21:14;;;;;;;0.00;0.00;;;19.80;43.80;;;;;;4994103;28;20717;-63
2023/10/03 04:23:45;;;;;;;0.00;0.00;;;19.90;43.80;;;;;;4994386;28;20260;-58
2023/10/03 04:26:17;;;;;;;0.00;0.00;;;19.90;44.30;;;;;;4994275;28;20641;-61
2023/10/03 04:28:49;;;;;;;0.00;0.00;;;19.90;43.70;;;;;;4994163;28;20205;-53
2023/10/03 04:31:20;;;;;;;0.10;0.10;;;19.90;43.60;;;;;;4993741;28;20590;-64
2023/10/03 04:33:50;;;;;;;0.00;0.00;;;19.90;43.50;;;;;;4994347;28;20702;-60
2023/10/03 04:36:24;;;;;;;0.00;0.00;;;19.90;43.50;;;;;;4994162;28;20641;-59
2023/10/03 04:38:55;;;;;;;0.00;0.00;;;20.00;43.50;;;;;;4994300;28;20197;-57
2023/10/03 04:41:27;;;;;;;0.00;0.00;;;20.00;43.50;;;;;;4993931;28;20229;-55
2023/10/03 04:44:02;;;;;;;0.00;0.00;;;20.00;43.40;;;;;;4993473;28;20701;-63
2023/10/03 04:46:32;;;;;;;0.00;0.00;;;20.00;43.30;;;;;;4993316;28;20202;-55
2023/10/03 04:49:03;;;;;;;0.00;0.00;;;20.10;43.30;;;;;;4994417;28;20198;-62
2023/10/03 04:51:35;;;;;;;0.00;0.00;;;20.10;43.20;;;;;;4993660;28;20238;-55
2023/10/03 04:54:05;;;;;;;0.00;0.00;;;20.10;43.20;;;;;;4996053;28;20211;-55
2023/10/03 04:56:36;;;;;;;0.00;0.00;;;20.10;43.20;;;;;;4993357;28;20205;-55
2023/10/03 04:59:08;;;;;;;0.00;0.00;;;20.20;43.20;;;;;;4993597;28;20201;-62
2023/10/03 05:01:39;;;;;;;0.00;0.00;;;20.20;43.20;;;;;;5018600;23;20632;-48
2023/10/03 05:04:12;;;;;;;0.00;0.00;;;20.20;43.20;;;;;;5052357;28;20219;-48
2023/10/03 05:06:43;;;;;;;0.00;0.00;;;20.30;43.20;;;;;;5054066;28;20214;-47
2023/10/03 05:09:13;;;;;;;0.00;0.00;;;20.30;43.20;;;;;;5052188;28;20199;-47
2023/10/03 05:11:47;;;;;;;0.00;0.00;;;20.30;43.20;;;;;;5050452;28;20675;-47
2023/10/03 05:14:20;;;;;;;0.00;0.00;;;20.30;43.10;;;;;;5046764;28;20234;-50
2023/10/03 05:16:52;;;;;;;0.00;0.00;;;20.30;43.10;;;;;;5041086;28;20226;-48
2023/10/03 05:19:23;;;;;;;0.00;0.00;;;20.30;43.10;;;;;;5045191;28;20207;-48
2023/10/03 05:21:53;;;;;;;0.00;0.00;;;20.30;43.00;;;;;;5050681;28;20223;-48
2023/10/03 05:24:24;;;;;;;0.00;0.00;;;20.40;43.10;;;;;;5047172;28;20204;-47
2023/10/03 05:26:55;;;;;;;0.00;0.00;;;20.40;43.00;;;;;;5040130;28;20210;-48
2023/10/03 05:29:29;;;;;;;0.10;0.10;;;20.40;43.00;;;;;;5057648;28;20189;-49
2023/10/03 05:32:01;;;;;;;0.00;0.00;;;20.40;42.90;;;;;;5061631;28;20191;-48
2023/10/03 05:34:34;;;;;;;0.00;0.00;;;20.40;42.70;;;;;;5033342;28;20235;-49
2023/10/03 05:37:05;;;;;;;0.00;0.00;;;20.40;42.60;;;;;;5034475;28;20199;-50
2023/10/03 05:39:36;;;;;;;0.00;0.00;;;20.40;42.40;;;;;;5050993;28;20208;-47
2023/10/03 05:42:06;;;;;;;0.00;0.00;;;20.40;42.30;;;;;;5050547;28;20242;-47
2023/10/03 05:44:39;;;;;;;0.00;0.00;;;20.40;42.30;;;;;;5043543;28;20546;-49
2023/10/03 05:47:09;;;;;;;0.00;0.00;;;20.40;42.50;;;;;;5047255;28;20191;-47
2023/10/03 05:49:43;;;;;;;0.00;0.00;;;20.40;42.50;;;;;;5040084;28;20192;-47
2023/10/03 05:52:14;;;;;;;0.00;0.00;;;20.40;42.50;;;;;;5040389;28;20286;-47
2023/10/03 05:54:44;;;;;;;0.00;0.00;;;20.40;42.50;;;;;;5047905;28;20199;-47
2023/10/03 05:57:15;;;;;;;0.00;0.00;;;20.30;42.40;;;;;;5030276;28;20200;-46
2023/10/03 05:59:48;;;;;;;0.00;0.00;;;20.30;42.30;;;;;;5044984;28;20207;-47
2023/10/03 06:02:18;;;;;;;0.00;0.00;;;20.30;42.30;;;;;;5046326;28;20399;-46
2023/10/03 06:04:49;;;;;;;0.00;0.00;;;20.30;42.20;;;;;;5043660;28;20530;-48
2023/10/03 06:07:22;;;;;;;0.00;0.00;;;20.30;42.20;;;;;;5034872;28;20191;-48
2023/10/03 06:09:55;;;;;;;0.00;0.00;;;20.30;42.20;;;;;;5045638;28;20196;-47
2023/10/03 06:12:26;;;;;;;0.00;0.00;;;20.30;42.10;;;;;;5050994;28;20251;-46
2023/10/03 06:14:59;;;;;;;0.00;0.00;;;20.30;42.20;;;;;;5047131;28;20291;-48
2023/10/03 06:17:30;;;;;;;0.00;0.00;;;20.20;42.10;;;;;;5050887;28;20233;-48
2023/10/03 06:20:00;;;;;;;0.00;0.00;;;20.20;42.10;;;;;;5050241;28;20187;-47
2023/10/03 06:22:32;;;;;;;0.00;0.00;;;20.20;42.10;;;;;;5048123;28;20231;-47
2023/10/03 06:25:03;;;;;;;0.10;0.10;;;20.10;42.10;;;;;;5049337;28;20656;-48
2023/10/03 06:27:34;;;;;;;0.00;0.00;;;20.10;42.10;;;;;;5048068;28;20655;-46
2023/10/03 06:30:07;;;;;;;0.00;0.00;;;20.10;42.10;;;;;;5046129;28;20693;-48
2023/10/03 06:32:37;;;;;;;0.00;0.00;;;20.10;42.10;;;;;;5037298;28;20223;-47
2023/10/03 06:35:09;;;;;;;0.03;0.03;;;20.10;42.10;;;;;;5042568;28;20192;-49
2023/10/03 06:37:40;;;;;;;0.00;0.00;;;20.00;42.10;;;;;;5039457;28;20691;-48
2023/10/03 06:40:13;;;;;;;0.00;0.00;;;20.00;42.10;;;;;;5035975;28;20659;-49
2023/10/03 06:42:44;;;;;;;0.00;0.00;;;20.00;42.20;;;;;;5048462;28;20540;-48
2023/10/03 06:45:21;;;;;;;0.00;0.00;;;20.00;42.20;;;;;;5055429;28;20575;-48
2023/10/03 06:47:51;;;;;;;0.00;0.00;;;19.90;42.20;;;;;;5051730;28;20663;-49
2023/10/03 06:50:24;;;;;;;0.00;0.00;;;19.90;42.30;;;;;;5054454;28;20199;-49
2023/10/03 06:52:55;;;;;;;0.00;0.00;;;19.90;42.30;;;;;;5050817;28;20246;-47
2023/10/03 06:55:26;;;;;;;0.00;0.00;;;19.90;42.40;;;;;;5054230;28;20195;-50
2023/10/03 06:57:58;;;;;;;0.00;0.00;;;19.90;42.40;;;;;;5052050;28;20574;-51
2023/10/03 07:00:32;;;;;;;0.00;0.00;;;19.80;42.40;;;;;;5047149;28;20250;-49
2023/10/03 07:03:03;;;;;;;0.03;0.03;;;19.80;42.40;;;;;;5050072;28;20233;-50
2023/10/03 07:05:34;;;;;;;0.00;0.00;;;19.80;42.40;;;;;;5054886;28;20274;-50
2023/10/03 07:08:05;;;;;;;0.00;0.00;;;19.80;42.40;;;;;;5039560;28;20282;-51
2023/10/03 07:10:37;;;;;;;0.05;0.05;;;19.70;42.40;;;;;;5054152;28;20198;-51
2023/10/03 07:13:08;;;;;;;0.10;0.10;;;19.70;42.40;;;;;;5046799;28;20246;-50
2023/10/03 07:15:42;;;;;;;0.00;0.00;;;19.70;42.40;;;;;;5054272;28;20195;-50
2023/10/03 07:18:14;;;;;;;0.00;0.00;;;19.60;42.40;;;;;;5037862;28;20410;-51
2023/10/03 07:20:47;;;;;;;0.00;0.00;;;19.70;42.40;;;;;;5034586;28;20196;-51
2023/10/03 07:23:20;;;;;;;0.00;0.00;;;19.60;42.40;;;;;;5043952;28;20262;-51
2023/10/03 07:25:52;;;;;;;0.00;0.00;;;19.60;42.40;;;;;;5054158;28;20199;-50
2023/10/03 07:28:24;;;;;;;0.00;0.00;;;19.60;42.40;;;;;;5066039;28;20199;-50
2023/10/03 07:30:58;;;;;;;0.00;0.00;;;19.50;42.40;;;;;;5074232;28;20195;-50
2023/10/03 07:33:32;;;;;;;0.00;0.00;;;19.50;42.40;;;;;;5074081;28;20587;-50
2023/10/03 07:36:09;;;;;;;0.10;0.10;;;19.50;42.40;;;;;;5073840;28;20234;-49
2023/10/03 07:38:42;;;;;;;0.08;0.08;;;19.40;42.40;;;;;;5074129;28;20277;-49
2023/10/03 07:41:17;;;;;;;0.00;0.00;;;19.40;42.50;;;;;;5073913;28;20210;-49
2023/10/03 07:43:52;;;;;;;0.00;0.00;;;19.40;42.50;;;;;;5074143;28;20767;-49
2023/10/03 07:46:28;;;;;;;0.00;0.00;;;19.40;42.50;;;;;;5069369;28;20203;-50
2023/10/03 07:49:01;;;;;;;0.10;0.10;;;19.40;42.50;;;;;;5052819;28;20202;-51
2023/10/03 07:51:34;;;;;;;0.00;0.00;;;19.40;42.50;;;;;;5053332;28;20199;-49
2023/10/03 07:54:07;;;;;;;0.10;0.10;;;19.30;42.50;;;;;;5054176;28;20247;-50
2023/10/03 07:56:42;;;;;;;0.05;0.05;;;19.30;42.50;;;;;;5054321;28;20210;-51
2023/10/03 07:59:15;;;;;;;0.00;0.00;;;19.30;42.50;;;;;;5054552;28;20280;-52
2023/10/03 08:01:49;;;;;;;0.08;0.08;;;19.30;42.50;;;;;;5054100;28;20226;-51
2023/10/03 08:04:23;;;;;;;0.00;0.00;;;19.20;42.40;;;;;;5053813;28;20222;-48
2023/10/03 08:06:55;;;;;;;0.10;0.10;;;19.20;42.50;;;;;;5053430;28;20282;-52
2023/10/03 08:09:28;;;;;;;0.10;0.10;;;19.20;42.50;;;;;;5053936;28;20195;-50
2023/10/03 08:12:05;;;;;;;0.00;0.00;;;19.10;42.50;;;;;;5053795;28;20231;-46
2023/10/03 08:14:41;;;;;;;0.00;0.00;;;19.10;42.50;;;;;;5053459;28;20237;-46
2023/10/03 08:17:16;;;;;;;0.00;0.00;;;19.10;42.50;;;;;;5053333;28;20286;-46
2023/10/03 08:19:48;;;;;;;0.00;0.00;;;19.10;42.50;;;;;;5053409;28;20279;-47
2023/10/03 08:22:20;;;;;;;0.10;0.10;;;19.10;42.60;;;;;;5052596;28;20254;-45
2023/10/03 08:24:52;;;;;;;0.10;0.10;;;19.10;42.70;;;;;;5047237;28;20710;-45
2023/10/03 08:27:30;;;;;;;0.00;0.00;;;19.00;42.60;;;;;;5042537;28;20222;-45
2023/10/03 08:30:03;;;;;;;0.00;0.00;;;19.00;42.70;;;;;;5043472;28;20192;-45
2023/10/03 08:32:39;;;;;;;0.00;0.00;;;19.00;42.70;;;;;;5053035;28;20215;-45
2023/10/03 08:35:12;;;;;;;0.03;0.03;;;18.90;42.70;;;;;;5052899;28;20199;-46
2023/10/03 08:37:45;;;;;;;0.00;0.00;;;19.00;42.70;;;;;;5048735;28;20218;-46
2023/10/03 08:40:22;;;;;;;0.00;0.00;;;18.90;42.70;;;;;;5052899;28;20200;-47
2023/10/03 08:42:55;;;;;;;0.00;0.00;;;18.90;42.70;;;;;;5052433;28;20230;-46
2023/10/03 08:45:29;;;;;;;0.00;0.00;;;18.90;42.70;;;;;;5032601;28;20204;-47
2023/10/03 08:48:05;;;;;;;0.00;0.00;;;18.80;42.70;;;;;;5049499;28;20222;-47
2023/10/03 08:50:46;;;;;;;0.00;0.00;;;18.80;42.70;;;;;;5051664;28;20230;-46
2023/10/03 08:53:28;;;;;;;0.10;0.10;;;18.80;42.70;;;;;;5051983;28;20247;-46
2023/10/03 08:56:02;;;;;;;0.00;0.00;;;18.80;42.80;;;;;;5046471;28;20702;-46
2023/10/03 08:58:33;;;;;;;0.00;0.00;;;18.70;42.80;;;;;;5032071;28;20188;-48
2023/10/03 09:01:17;;;;;;;0.00;0.00;;;18.70;42.80;;;;;;5032290;28;20243;-46
2023/10/03 09:04:04;;;;;;;0.00;0.00;;;18.70;42.80;;;;;;5045918;28;20357;-46
2023/10/03 09:06:38;;;;;;;0.00;0.00;;;18.70;42.90;;;;;;5049655;28;20242;-46
2023/10/03 09:09:13;;;;;;;0.00;0.00;;;18.60;42.80;;;;;;5052175;28;20191;-46
2023/10/03 09:11:45;;;;;;;0.00;0.00;;;18.60;42.80;;;;;;5064620;28;20213;-46
2023/10/03 09:14:21;;;;;;;0.10;0.10;;;18.60;42.90;;;;;;5036220;28;20215;-46
2023/10/03 09:16:53;;;;;;;0.00;0.00;;;18.60;42.90;;;;;;5040273;28;20200;-46
2023/10/03 09:19:46;;;;;;;0.00;0.00;;;18.50;42.80;;;;;;5052057;28;20196;-47
2023/10/03 09:22:30;;;;;;;0.00;0.00;;;18.50;42.80;;;;;;5054164;28;20210;-46
2023/10/03 09:25:01;;;;;;;0.00;0.00;;;18.50;42.80;;;;;;5031592;28;20851;-46
2023/10/03 09:27:31;;;;;;;0.00;0.00;;;18.50;42.80;;;;;;5059961;28;20549;-47
2023/10/03 09:30:08;;;;;;;0.00;0.00;;;18.40;42.80;;;;;;5041644;28;20191;-47
2023/10/03 09:32:40;;;;;;;0.03;0.03;;;18.40;42.90;;;;;;5048588;28;20215;-48
2023/10/03 09:35:13;;;;;;;0.00;0.00;;;18.40;42.90;;;;;;5030765;28;20273;-46
2023/10/03 09:37:48;;;;;;;0.10;0.10;;;18.40;42.90;;;;;;5037227;28;20195;-46
2023/10/03 09:40:19;;;;;;;0.00;0.00;;;18.30;42.90;;;;;;5037515;28;20249;-46
2023/10/03 09:42:51;;;;;;;0.00;0.00;;;18.30;42.90;;;;;;5047220;28;20231;-46
2023/10/03 09:45:26;;;;;;;0.00;0.00;;;18.30;42.90;;;;;;5049676;28;20199;-46
2023/10/03 09:48:05;;;;;;;0.00;0.00;;;18.20;42.90;;;;;;5045463;28;20310;-46
2023/10/03 09:50:39;;;;;;;0.05;0.05;;;18.20;43.00;;;;;;5030775;28;20200;-47
2023/10/03 09:53:15;;;;;;;0.10;0.10;;;18.20;43.00;;;;;;5038062;28;20306;-45
2023/10/03 09:55:49;;;;;;;0.00;0.00;;;18.20;43.00;;;;;;5049481;28;20281;-46
2023/10/03 09:58:24;;;;;;;0.00;0.00;;;18.20;43.00;;;;;;5049332;28;20198;-48
2023/10/03 10:00:56;;;;;;;0.00;0.00;;;18.20;43.00;;;;;;5050717;28;20653;-46
2023/10/03 10:03:33;;;;;;;0.00;0.00;;;18.10;43.00;;;;;;5033929;28;20227;-47
2023/10/03 10:06:17;;;;;;;0.10;0.10;;;18.10;43.00;;;;;;5033857;23;20222;-52
2023/10/03 10:08:59;;;;;;;0.00;0.00;;;18.10;43.60;;;;;;5002588;28;20306;-55
2023/10/03 10:11:31;;;;;;;0.00;0.00;;;18.10;43.00;;;;;;5021784;28;20231;-56
2023/10/03 10:14:10;;;;;;;0.10;0.10;;;18.10;43.00;;;;;;5003342;28;20225;-53
2023/10/03 10:17:21;;;;;;;0.00;0.00;;;18.00;43.00;;;;;;5011894;28;20236;-49
2023/10/03 10:20:13;;;;;;;0.00;0.00;;;18.00;43.10;;;;;;5010715;28;20208;-49
2023/10/03 10:23:16;;;;;;;0.00;0.00;;;17.90;43.00;;;;;;5010225;28;20236;-52
2023/10/03 10:25:56;;;;;;;0.00;0.00;;;17.90;43.00;;;;;;5020546;28;20192;-47
2023/10/03 10:28:34;;;;;;;0.00;0.00;;;17.90;43.10;;;;;;5010538;28;20283;-49
2023/10/03 10:31:25;;;;;;;0.00;0.00;;;17.90;43.20;;;;;;5012331;28;20566;-59
2023/10/03 10:34:35;;;;;;;0.00;0.00;;;17.80;43.10;;;;;;5003073;28;20287;-50
2023/10/03 10:37:09;;;;;;;0.00;0.00;;;17.80;43.20;;;;;;4991727;28;20190;-56
2023/10/03 10:40:17;;;;;;;0.00;0.00;;;17.80;43.20;;;;;;5004119;28;20283;-53
2023/10/03 10:43:01;;;;;;;0.00;0.00;;;17.80;43.30;;;;;;5002180;28;20244;-52
2023/10/03 10:45:37;;;;;;;0.00;0.00;;;17.80;43.30;;;;;;5020310;28;20191;-55
2023/10/03 10:48:11;;;;;;;0.00;0.00;;;17.70;43.30;;;;;;5010917;28;20259;-53
2023/10/03 10:51:12;;;;;;;0.10;0.10;;;17.70;43.30;;;;;;5011259;28;20719;-56
2023/10/03 10:53:47;;;;;;;0.05;0.05;;;17.70;43.30;;;;;;5010678;28;20342;-54
2023/10/03 10:56:19;;;;;;;0.00;0.00;;;17.70;43.30;;;;;;5011082;28;20200;-57
2023/10/03 10:59:01;;;;;;;0.10;0.10;;;17.70;43.30;;;;;;5010368;28;20196;-60
2023/10/03 11:01:32;;;;;;;0.10;0.10;;;17.60;43.30;;;;;;5004140;28;20200;-56
2023/10/03 11:04:03;;;;;;;0.03;0.03;;;17.60;43.30;;;;;;5002194;28;20299;-53
2023/10/03 11:06:33;;;;;;;0.00;0.00;;;17.60;43.30;;;;;;5022155;23;20235;-49
2023/10/03 11:09:04;;;;;;;0.00;0.00;;;17.60;43.30;;;;;;5011012;28;20189;-50
2023/10/03 11:11:41;;;;;;;0.00;0.00;;;17.60;43.40;;;;;;5009824;28;20247;-48
2023/10/03 11:14:11;;;;;;;0.10;0.10;;;17.50;43.40;;;;;;5009280;28;20234;-47
2023/10/03 11:16:43;;;;;;;0.00;0.00;;;17.50;43.40;;;;;;5011257;28;20189;-49
2023/10/03 11:19:13;;;;;;;0.00;0.00;;;17.50;43.40;;;;;;5010631;28;20548;-50
2023/10/03 11:21:44;;;;;;;0.00;0.00;;;17.50;43.40;;;;;;5011418;28;20193;-45
2023/10/03 11:24:19;;;;;;;0.00;0.00;;;17.50;43.50;;;;;;5014510;28;20561;-45
2023/10/03 11:26:53;;;;;;;0.00;0.00;;;17.50;43.50;;;;;;5012551;28;20555;-46
2023/10/03 11:29:45;;;;;;;0.00;0.00;;;17.50;43.50;;;;;;5014458;28;20239;-46
2023/10/03 11:32:24;;;;;;;0.00;0.00;;;17.40;43.50;;;;;;5013452;28;20275;-45
2023/10/03 11:34:57;;;;;;;0.00;0.00;;;17.40;43.50;;;;;;5013160;28;20188;-46
2023/10/03 11:37:40;;;;;;;0.00;0.00;;;17.40;43.50;;;;;;5012390;28;20185;-46
2023/10/03 11:40:18;;;;;;;0.10;0.10;;;17.40;43.50;;;;;;5012239;28;20188;-46
2023/10/03 11:42:55;;;;;;;0.00;0.00;;;17.40;43.50;;;;;;5011774;28;20220;-45
2023/10/03 11:45:28;;;;;;;0.00;0.00;;;17.30;43.50;;;;;;5014410;28;20193;-46
2023/10/03 11:48:06;;;;;;;0.00;0.00;;;17.30;43.50;;;;;;5014209;28;20197;-45
2023/10/03 11:50:38;;;;;;;0.05;0.05;;;17.30;43.50;;;;;;5012470;28;20192;-45
2023/10/03 11:53:10;;;;;;;0.05;0.05;;;17.30;43.50;;;;;;5011680;28;20243;-46
2023/10/03 11:55:42;;;;;;;0.00;0.00;;;17.30;43.50;;;;;;5014433;28;20189;-46
2023/10/03 11:58:15;;;;;;;0.00;0.00;;;17.30;43.60;;;;;;5012473;28;20204;-45
2023/10/03 12:00:45;;;;;;;0.00;0.00;;;17.20;43.60;;;;;;5013961;28;20595;-46
2023/10/03 12:03:16;;;;;;;0.10;0.10;;;17.20;43.60;;;;;;5013735;28;20227;-45
2023/10/03 12:05:49;;;;;;;0.00;0.00;;;17.20;43.60;;;;;;5011899;28;20697;-45
2023/10/03 12:08:19;;;;;;;0.10;0.10;;;17.20;43.60;;;;;;5014176;28;20555;-45
2023/10/03 12:10:50;;;;;;;0.10;0.10;;;17.20;43.60;;;;;;5011728;28;20657;-46
2023/10/03 12:13:22;;;;;;;0.10;0.10;;;17.10;43.60;;;;;;5014395;28;20220;-45
2023/10/03 12:15:54;;;;;;;0.00;0.00;;;17.10;43.60;;;;;;5013886;28;20211;-45
2023/10/03 12:18:26;;;;;;;0.00;0.00;;;17.10;43.60;;;;;;5014149;28;20255;-45
2023/10/03 12:20:57;;;;;;;0.05;0.05;;;17.10;43.60;;;;;;5013908;28;20288;-45
2023/10/03 12:23:29;;;;;;;0.00;0.00;;;17.10;43.60;;;;;;5013157;28;20227;-45
2023/10/03 12:25:59;;;;;;;0.10;0.10;;;17.10;43.70;;;;;;5014126;28;20203;-45
2023/10/03 12:28:32;;;;;;;0.00;0.00;;;17.10;43.70;;;;;;5014137;28;20201;-45
2023/10/03 12:31:05;;;;;;;0.10;0.10;;;17.00;43.60;;;;;;5014147;28;20197;-45
2023/10/03 12:33:35;;;;;;;0.10;0.10;;;17.10;43.70;;;;;;5013041;28;20228;-46
2023/10/03 12:36:06;;;;;;;0.10;0.10;;;17.00;43.70;;;;;;5014024;28;20393;-45
2023/10/03 12:38:37;;;;;;;0.03;0.03;;;17.00;44.00;;;;;;5013437;28;20219;-45
2023/10/03 12:41:08;;;;;;;0.10;0.10;;;17.00;43.70;;;;;;5013317;28;20201;-46
2023/10/03 12:43:46;;;;;;;0.10;0.10;;;16.90;43.70;;;;;;5013377;28;20233;-47
2023/10/03 12:46:18;;;;;;;0.00;0.00;;;16.90;43.70;;;;;;5013760;28;20657;-46
2023/10/03 12:48:49;;;;;;;0.00;0.00;;;16.90;43.70;;;;;;5013980;28;20193;-46
2023/10/03 12:51:19;;;;;;;0.10;0.10;;;16.90;43.80;;;;;;5012958;28;20954;-45
2023/10/03 12:53:52;;;;;;;0.00;0.00;;;16.90;43.80;;;;;;4993712;28;20717;-46
2023/10/03 12:56:23;;;;;;;0.10;0.10;;;16.90;43.80;;;;;;4994144;28;20449;-47
2023/10/03 12:58:57;;;;;;;0.10;0.10;;;16.90;43.80;;;;;;4993910;28;20198;-46
2023/10/03 13:01:27;;;;;;;0.00;0.00;;;16.80;43.70;;;;;;4993841;28;20197;-45
2023/10/03 13:03:58;;;;;;;0.00;0.00;;;16.80;43.70;;;;;;4993338;28;20241;-46
2023/10/03 13:06:28;;;;;;;0.10;0.10;;;16.80;43.70;;;;;;5039845;23;20216;-58
2023/10/03 13:09:00;;;;;;;0.10;0.10;;;16.90;43.80;;;;;;5032728;28;20569;-57
2023/10/03 13:11:31;;;;;;;0.10;0.10;;;16.80;43.80;;;;;;5032725;28;20196;-54
2023/10/03 13:14:05;;;;;;;0.10;0.10;;;16.80;43.70;;;;;;5032460;28;20703;-55
2023/10/03 13:16:35;;;;;;;0.10;0.10;;;16.80;43.70;;;;;;5025227;28;20204;-56
2023/10/03 13:19:08;;;;;;;0.10;0.10;;;16.70;43.70;;;;;;5012362;28;20193;-57
2023/10/03 13:21:42;;;;;;;0.10;0.10;;;16.70;43.70;;;;;;5012715;28;20201;-56
2023/10/03 13:24:13;;;;;;;0.00;0.00;;;16.70;43.80;;;;;;5012522;28;20256;-47